Flight Track Log - Related Links

Times and Time Zones

All times are in EDT time to prevent confusion due to time zone crossing. See the AAL1687 flight status page for this flight to view local times or setup timezone preferences in your user account.

Time Position Orientation Groundspeed Altitude Reporting Facility
EDT Latitude Longitude Course Direction KTS MPH feet Rate Location/Type
Sat 07:21:24 PM 33.6500 -84.5000 270° West 217 250 3,600  Level Atlanta TRACON
Sat 07:22:24 PM 33.6667 -84.5833 284° West 265 305 6,500 3,211 Climbing Atlanta TRACON
Sat 07:23:00 PM 33.8000 -84.2969 270° West  Level FlightAware Approximate
Sat 07:23:18 PM 33.6833 -84.6667 284° West 270 311 9,700  Level Atlanta TRACON
Sat 07:24:00 PM 33.8001 -84.4123 270° West  Level FlightAware Approximate
Sat 07:25:00 PM 33.8000 -84.5277 270° West  Level FlightAware Approximate
Sat 07:25:41 PM 33.7222 -84.9156 281° West 341 392 14,700  Level Atlanta Center
Sat 07:26:00 PM 33.8000 -84.6431 270° West  Level FlightAware Approximate
Sat 07:26:41 PM 33.7400 -85.0356 280° West 366 421 17,300  Level Atlanta Center
Sat 07:27:41 PM 33.7578 -85.1606 280° West 371 427 19,500 2,150 Climbing Atlanta Center
Sat 07:28:41 PM 33.7775 -85.2883 281° West 376 433 21,600 2,000 Climbing Atlanta Center
Sat 07:29:41 PM 33.8011 -85.4186 282° West 392 451 23,500 1,900 Climbing Atlanta Center
Sat 07:30:41 PM 33.8247 -85.5542 282° West 411 473 25,400 2,100 Climbing Atlanta Center
Sat 07:31:41 PM 33.8500 -85.6847 283° West 411 473 27,700 2,000 Climbing Atlanta Center
Sat 07:32:41 PM 33.8861 -85.7931 292° West 405 466 29,400 1,650 Climbing Atlanta Center
Sat 07:33:41 PM 33.9242 -85.9114 291° West 391 450 31,000 1,550 Climbing Atlanta Center
Sat 07:34:41 PM 33.9617 -86.0325 291° West 391 450 32,500 1,300 Climbing Atlanta Center
Sat 07:35:41 PM 33.9975 -86.1511 290° West 391 450 33,600 750 Climbing Atlanta Center
Sat 07:36:41 PM 34.0308 -86.2722 288° West 386 444 34,000 200 Climbing Atlanta Center
Sat 07:37:41 PM 34.0639 -86.3933 288° West 386 444 34,000  Level Atlanta Center
Sat 07:38:41 PM 34.0992 -86.5147 289° West 386 444 34,000  Level Atlanta Center
Sat 07:39:41 PM 34.1322 -86.6361 288° West 386 444 34,000  Level Atlanta Center
Sat 07:40:41 PM 34.1669 -86.7578 289° West 381 438 34,000  Level Atlanta Center
Sat 07:41:06 PM 34.1803 -86.8094 287° West 385 443 34,000 71 Level Memphis Center
Sat 07:42:06 PM 34.2131 -86.9361 287° West 390 449 34,100  Climbing Memphis Center
Sat 07:43:06 PM 34.2478 -87.0581 289° West 390 449 34,000 -50 Descending Memphis Center
Sat 07:44:06 PM 34.2822 -87.1822 289° West 396 456 34,000  Level Memphis Center
Sat 07:45:06 PM 34.3167 -87.3017 289° West 383 441 34,000  Level Memphis Center
Sat 07:46:06 PM 34.3508 -87.4239 289° West 383 441 34,000  Level Memphis Center
Sat 07:47:06 PM 34.3850 -87.5458 289° West 383 441 34,000  Level Memphis Center
Sat 07:48:06 PM 34.4169 -87.6683 288° West 383 441 34,000  Level Memphis Center
Sat 07:49:06 PM 34.4528 -87.7931 289° West 383 441 34,000  Level Memphis Center
Sat 07:50:06 PM 34.4847 -87.9256 286° West 377 434 34,000  Level Memphis Center
Sat 07:51:06 PM 34.5164 -88.0483 287° West 377 434 34,000  Level Memphis Center
Sat 07:52:06 PM 34.5500 -88.1708 288° West 377 434 34,000  Level Memphis Center
Sat 07:53:06 PM 34.5833 -88.3011 287° West 385 443 34,000  Level Memphis Center
Sat 07:54:06 PM 34.6167 -88.4242 288° West 385 443 34,000  Level Memphis Center
Sat 07:55:06 PM 34.6475 -88.5394 288° West 367 422 34,000  Level Memphis Center
Sat 07:56:06 PM 34.6764 -88.6625 286° West 367 422 34,000  Level Memphis Center
Sat 07:57:06 PM 34.6822 -88.7886 273° West 377 434 34,000  Level Memphis Center
Sat 07:58:06 PM 34.6819 -88.9175 270° West 372 428 34,000  Level Memphis Center
Sat 07:59:06 PM 34.6808 -89.0286 269° West 377 434 34,000  Level Memphis Center
Sat 08:00:06 PM 34.6822 -89.1550 271° West 377 434 34,000  Level Memphis Center
Sat 08:01:06 PM 34.6833 -89.2811 271° West 377 434 34,000  Level Memphis Center
Sat 08:02:06 PM 34.6844 -89.4075 271° West 382 440 34,000  Level Memphis Center
Sat 08:03:06 PM 34.6853 -89.5336 270° West 382 440 34,000  Level Memphis Center
Sat 08:04:06 PM 34.6842 -89.6728 269° West 382 440 34,000  Level Memphis Center
Sat 08:05:06 PM 34.6828 -89.8014 269° West 382 440 34,000  Level Memphis Center
Sat 08:06:06 PM 34.6853 -89.9303 271° West 382 440 34,000  Level Memphis Center
Sat 08:07:06 PM 34.6897 -90.0567 272° West 377 434 34,000  Level Memphis Center
Sat 08:08:06 PM 34.6900 -90.1828 270° West 377 434 34,000  Level Memphis Center
Sat 08:09:06 PM 34.6903 -90.2964 270° West 377 434 34,000  Level Memphis Center
Sat 08:10:06 PM 34.6903 -90.4228 270° West 382 440 34,000  Level Memphis Center
Sat 08:11:06 PM 34.6900 -90.5492 270° West 382 440 34,000  Level Memphis Center
Sat 08:12:06 PM 34.6897 -90.6728 270° West 377 434 34,000  Level Memphis Center
Sat 08:13:06 PM 34.6894 -90.7967 270° West 377 434 34,000  Level Memphis Center
Sat 08:14:06 PM 34.6869 -90.9356 269° West 377 434 34,000  Level Memphis Center
Sat 08:15:06 PM 34.6883 -91.0617 271° West 377 434 34,000  Level Memphis Center
Sat 08:16:06 PM 34.6897 -91.1881 271° West 382 440 34,000  Level Memphis Center
Sat 08:17:06 PM 34.6867 -91.3144 268° West 382 440 34,000  Level Memphis Center
Sat 08:18:06 PM 34.6878 -91.4381 271° West 376 433 34,000  Level Memphis Center
Sat 08:19:06 PM 34.6867 -91.5619 269° West 376 433 34,000  Level Memphis Center
Sat 08:20:06 PM 34.6853 -91.6856 269° West 371 427 34,000  Level Memphis Center
Sat 08:21:06 PM 34.6819 -91.7942 268° West 366 421 34,000  Level Memphis Center
Sat 08:22:06 PM 34.6825 -91.9203 270° West 366 421 34,000  Level Memphis Center
Sat 08:23:06 PM 34.6811 -92.0442 269° West 371 427 34,000  Level Memphis Center
Sat 08:24:06 PM 34.6772 -92.1703 268° West 371 427 34,000  Level Memphis Center
Sat 08:25:06 PM 34.6483 -92.2883 253° West 371 427 34,000  Level Memphis Center
Sat 08:26:06 PM 34.6172 -92.4064 252° West 371 427 34,000  Level Memphis Center
Sat 08:27:06 PM 34.5858 -92.5267 252° West 376 433 34,000  Level Memphis Center
Sat 08:28:06 PM 34.5544 -92.6494 253° West 381 438 34,000  Level Memphis Center
Sat 08:29:06 PM 34.5211 -92.7669 251° West 381 438 34,000  Level Memphis Center
Sat 08:30:06 PM 34.4892 -92.8944 253° West 376 433 34,000  Level Memphis Center
Sat 08:31:06 PM 34.4556 -93.0144 251° West 371 427 34,000  Level Memphis Center
Sat 08:32:06 PM 34.4236 -93.1344 252° West 377 434 34,000  Level Memphis Center
Sat 08:33:06 PM 34.3917 -93.2517 252° West 377 434 34,000  Level Memphis Center
Sat 08:34:15 PM 34.3589 -93.3783 253° West 365 420 34,000  Level Fort Worth Center
Sat 08:35:15 PM 34.3272 -93.4981 252° West 371 427 34,000  Level Fort Worth Center
Sat 08:36:15 PM 34.2953 -93.6128 251° West 371 427 34,000  Level Fort Worth Center
Sat 08:37:15 PM 34.2614 -93.7347 251° West 371 427 34,000  Level Fort Worth Center
Sat 08:38:15 PM 34.2292 -93.8492 251° West 371 427 34,000  Level Fort Worth Center
Sat 08:39:15 PM 34.1992 -93.9658 253° West 371 427 34,000 -300 Level Fort Worth Center
Sat 08:40:15 PM 34.1667 -94.0800 251° West 371 427 33,400 -650 Descending Fort Worth Center
Sat 08:41:15 PM 34.1381 -94.1867 252° West 363 418 32,700 -800 Descending Fort Worth Center
Sat 08:42:15 PM 34.1075 -94.2906 250° West 346 398 31,800 -850 Descending Fort Worth Center
Sat 08:43:15 PM 34.0786 -94.3919 251° West 338 389 31,000 -750 Descending Fort Worth Center
Sat 08:44:15 PM 34.0478 -94.4958 250° West 331 381 30,300 -700 Descending Fort Worth Center
Sat 08:45:15 PM 34.0186 -94.5994 251° West 331 381 29,600 -800 Descending Fort Worth Center
Sat 08:46:15 PM 33.9878 -94.7056 251° West 331 381 28,700 -1,000 Descending Fort Worth Center
Sat 08:47:15 PM 33.9528 -94.8269 251° West 359 413 27,600 -950 Descending Fort Worth Center
Sat 08:48:15 PM 33.9156 -94.9481 250° West 381 438 26,800 -750 Descending Fort Worth Center
Sat 08:49:15 PM 33.8803 -95.0742 251° West 394 453 26,100 -700 Descending Fort Worth Center
Sat 08:50:15 PM 33.8450 -95.1953 251° West 394 453 25,400 -700 Descending Fort Worth Center
Sat 08:51:15 PM 33.8094 -95.3161 251° West 394 453 24,700 -600 Descending Fort Worth Center
Sat 08:52:15 PM 33.7717 -95.4344 249° West 389 448 24,200 -650 Descending Fort Worth Center
Sat 08:53:15 PM 33.7361 -95.5553 251° West 389 448 23,400 -1,250 Descending Fort Worth Center
Sat 08:54:15 PM 33.7025 -95.6883 253° West 389 448 21,700 -1,750 Descending Fort Worth Center
Sat 08:55:15 PM 33.6686 -95.8061 251° West 389 448 19,900 -1,900 Descending Fort Worth Center
Sat 08:56:15 PM 33.6322 -95.9217 249° West 384 442 17,900 -1,900 Descending Fort Worth Center
Sat 08:57:15 PM 33.5981 -96.0344 250° West 373 429 16,100 -1,950 Descending Fort Worth Center
Sat 08:58:15 PM 33.5639 -96.1472 250° West 373 429 14,000 -1,900 Descending Fort Worth Center
Sat 08:59:15 PM 33.5253 -96.2522 246° West 367 422 12,300 -1,500 Descending Fort Worth Center
Sat 09:00:15 PM 33.4569 -96.3303 224° Southwest 340 391 11,000 -650 Descending Fort Worth Center
Sat 09:01:15 PM 33.4014 -96.3983 226° Southwest 310 357 11,000 -850 Level Fort Worth Center
Sat 09:02:15 PM 33.3494 -96.4611 225° Southwest 282 325 9,300 -1,500 Descending Fort Worth Center
Sat 09:03:15 PM 33.3042 -96.5336 233° Southwest 276 318 8,000 -1,550 Descending Fort Worth Center
Sat 09:04:15 PM 33.2650 -96.6061 237° Southwest 264 304 6,200 -1,400 Descending Fort Worth Center
Sat 09:05:15 PM 33.2258 -96.6808 238° Southwest 269 310 5,200 -600 Descending Fort Worth Center
Sat 09:06:15 PM 33.1867 -96.7581 239° Southwest 269 310 5,000 -100 Descending Fort Worth Center
Sat 09:07:15 PM 33.1453 -96.8303 236° Southwest 269 310 5,000 -600 Level Fort Worth Center
Sat 09:08:15 PM 33.1100 -96.8975 238° Southwest 274 315 3,800 -1,052 Descending Fort Worth Center
Sat 09:08:52 PM 33.0833 -96.9500 239° Southwest 244 281 3,300 -557 Descending Dallas / Fort Worth TRACON
Sat 09:09:52 PM 33.0500 -97.0000 232° Southwest 183 211 2,900 -400 Descending Dallas / Fort Worth TRACON

Login

Don't have an account? Register now (free) for customized features, flight alerts, and more!